Atlanta, MI

9:57 PM EDT on April 20, 2015 (GMT -0400)
RAWS | | Change Station
CLOSE
Current Station
Personal Weather Station
Location: Atlanta, MI
Elevation: 895 ft
Nearby Weather Stations

Elev 895 ft 45.15 °N, 84.19 °W | Updated 49 minutes ago

Overcast
Overcast
39 °F
Feels Like 32 °F
N
11
Wind Variable Wind from West
Gusts 27.0 mph

Today
High -- | Low -- °F
--% Chance of Precip.
Yesterday
High -- | Low -- °F
Precip. -- in
6:43 AM 8:28 PM
Waxing Crescent, 7% visible
Pressure 29.38 in
Visibility 6.0 miles
Clouds Overcast 700 ft
Windchill 32 °F
Dew Point 34 °F
Humidity 83%
Rainfall in
Snow Depth Not available.
UV 0 out of 12
Pollen 2.40 out of 12
Air Quality Not available.
Flu Activity Regional
METAR KGLR 210053Z AUTO 27018G24KT 6SM -RA BR OVC007 02/02 A2935 RMK AO2 SLP947 P0001 T00220022

More Conditions Fewer Conditions

Pressure 29.38 in
Visibility 6.0 miles
Clouds Overcast 700 ft
Windchill 32 °F
Dew Point 34 °F
Humidity 83%
Rainfall in
Snow Depth Not available.
UV 0 out of 12
Pollen 2.40 out of 12
Air Quality Not available.
Flu Activity Regional
METAR KGLR 210053Z AUTO 27018G24KT 6SM -RA BR OVC007 02/02 A2935 RMK AO2 SLP947 P0001 T00220022

More Conditions Fewer Conditions

Nowcast | as of 9:00 PM EDT on April 20, 2015

At 10 PM...cloudy. Chance of showers. Temperature 42. West winds 12 mph. At 12 am...mostly cloudy. Chance of showers. Temperature 40. West winds 10 mph. At 2 am...partly cloudy. Slight chance of showers. Temperature 39. Southwest winds 7 mph. At 4 am...partly cloudy. Slight chance of showers. Temperature 39. Southwest winds 7 mph.

×

10-Day Weather Forecast

Almanac

Astronomy

Apr. 20, 2015 Rise Set
Actual Time
Civil Twilight
Nautical Twilight
Astronomical Twilight
Moon
Length of Visible Light
Length of Day
Tomorrow will be .
, % of the Moon is Illuminated

Today's Extremes

State Highs State Lows

Community

WunderPhotos

Upload Photos

1,815,276 photos uploaded!

WunderBlogs® & News

Nearby

Air Quality

  Air Quality AQ Index Pollutant
Not available.

Snow Depth

Station Depth Elevation

Earthquake Activity

City Distance Mag. Time & Date
Minimum magnitude displayed is 2.5.

Coastal Water Temperatures

Place Temperature

Stations

Nearby Weather Stations

Station Location Temp. Windchill Dew Point Humidity Wind Precip. Elev Updated Type